METAR Data

Data at: 0541 UTC 28 Sep 2022

METAR for:KLWM (Lawrence Muni, MA, US)
Text:KLWM 280454Z AUTO 21005KT 10SM CLR 12/09 A2992 RMK AO2 SLP132 T01170089 402280117
Temperature: 11.7°C ( 53°F)
Dewpoint: 8.9°C ( 48°F) [RH = 83%]
Pressure (altimeter):29.92 inches Hg (1013.3 mb) [Sea level pressure: 1013.2 mb]
Winds:from the SSW (210 degrees) at 6 MPH (5 knots; 2.6 m/s)
Visibility:10 or more sm (16+ km)
Ceiling:at least 12,000 feet AGL
Clouds:sky clear below 12,000 feet AGL
QC Flag:automated observation with no human augmentation